sensor_id;sensor_type;location;lat;lon;timestamp;temperature;humidity
31783;DHT22;18351;47.560;9.708;2023-07-24T00:00:38;18.60;99.90
31783;DHT22;18351;47.560;9.708;2023-07-24T00:03:05;18.80;99.90
31783;DHT22;18351;47.560;9.708;2023-07-24T00:05:31;19.00;99.90
31783;DHT22;18351;47.560;9.708;2023-07-24T00:07:57;19.20;99.90
31783;DHT22;18351;47.560;9.708;2023-07-24T00:10:22;19.30;99.90
31783;DHT22;18351;47.560;9.708;2023-07-24T00:12:48;19.40;99.90
31783;DHT22;18351;47.560;9.708;2023-07-24T00:15:13;19.60;99.90
31783;DHT22;18351;47.560;9.708;2023-07-24T00:17:39;19.70;99.90
31783;DHT22;18351;47.560;9.708;2023-07-24T00:20:06;19.70;99.90
31783;DHT22;18351;47.560;9.708;2023-07-24T00:22:31;19.90;99.90
31783;DHT22;18351;47.560;9.708;2023-07-24T00:24:57;19.90;99.90
31783;DHT22;18351;47.560;9.708;2023-07-24T00:27:22;20.10;99.90
31783;DHT22;18351;47.560;9.708;2023-07-24T00:29:48;20.20;99.90
31783;DHT22;18351;47.560;9.708;2023-07-24T00:32:14;20.30;99.90
31783;DHT22;18351;47.560;9.708;2023-07-24T00:34:39;20.40;99.90
31783;DHT22;18351;47.560;9.708;2023-07-24T00:37:05;20.50;99.90
31783;DHT22;18351;47.560;9.708;2023-07-24T00:39:31;20.50;99.90
31783;DHT22;18351;47.560;9.708;2023-07-24T00:41:56;20.50;99.90
31783;DHT22;18351;47.560;9.708;2023-07-24T00:44:22;20.50;99.90
31783;DHT22;18351;47.560;9.708;2023-07-24T00:46:48;20.40;99.90
31783;DHT22;18351;47.560;9.708;2023-07-24T00:49:14;20.30;99.90
31783;DHT22;18351;47.560;9.708;2023-07-24T00:51:40;20.20;99.90
31783;DHT22;18351;47.560;9.708;2023-07-24T00:54:06;20.10;99.90
31783;DHT22;18351;47.560;9.708;2023-07-24T00:56:32;20.10;99.90
31783;DHT22;18351;47.560;9.708;2023-07-24T00:59:00;20.10;99.90
31783;DHT22;18351;47.560;9.708;2023-07-24T01:01:26;20.10;99.90
31783;DHT22;18351;47.560;9.708;2023-07-24T01:03:52;20.20;99.90
31783;DHT22;18351;47.560;9.708;2023-07-24T01:06:18;20.20;99.90
31783;DHT22;18351;47.560;9.708;2023-07-24T01:08:44;20.10;99.90
31783;DHT22;18351;47.560;9.708;2023-07-24T01:11:19;20.20;99.90
31783;DHT22;18351;47.560;9.708;2023-07-24T01:13:57;20.30;99.90
31783;DHT22;18351;47.560;9.708;2023-07-24T01:16:28;20.40;99.90
31783;DHT22;18351;47.560;9.708;2023-07-24T01:18:57;20.60;99.90
31783;DHT22;18351;47.560;9.708;2023-07-24T01:21:32;20.80;99.90
31783;DHT22;18351;47.560;9.708;2023-07-24T01:24:02;20.90;99.90
31783;DHT22;18351;47.560;9.708;2023-07-24T01:26:28;21.00;99.90
31783;DHT22;18351;47.560;9.708;2023-07-24T01:28:54;21.00;99.90
31783;DHT22;18351;47.560;9.708;2023-07-24T01:31:19;21.00;99.90
31783;DHT22;18351;47.560;9.708;2023-07-24T01:33:45;21.10;99.90
31783;DHT22;18351;47.560;9.708;2023-07-24T01:36:11;21.20;99.90
31783;DHT22;18351;47.560;9.708;2023-07-24T01:38:38;21.20;99.90
31783;DHT22;18351;47.560;9.708;2023-07-24T01:41:04;21.40;99.90
31783;DHT22;18351;47.560;9.708;2023-07-24T01:43:31;21.50;99.90
31783;DHT22;18351;47.560;9.708;2023-07-24T01:45:57;21.70;99.90
31783;DHT22;18351;47.560;9.708;2023-07-24T01:48:23;21.80;99.90
31783;DHT22;18351;47.560;9.708;2023-07-24T01:50:49;21.70;99.90
31783;DHT22;18351;47.560;9.708;2023-07-24T01:53:15;21.60;99.90
31783;DHT22;18351;47.560;9.708;2023-07-24T01:55:41;21.60;99.90
31783;DHT22;18351;47.560;9.708;2023-07-24T01:58:06;21.50;99.90
31783;DHT22;18351;47.560;9.708;2023-07-24T02:00:32;21.50;99.90
31783;DHT22;18351;47.560;9.708;2023-07-24T02:02:58;21.40;99.90
31783;DHT22;18351;47.560;9.708;2023-07-24T02:05:23;21.30;99.90
31783;DHT22;18351;47.560;9.708;2023-07-24T02:07:49;21.30;99.90
31783;DHT22;18351;47.560;9.708;2023-07-24T02:10:14;21.10;99.90
31783;DHT22;18351;47.560;9.708;2023-07-24T02:12:40;21.00;99.90
31783;DHT22;18351;47.560;9.708;2023-07-24T02:15:06;20.90;99.90
31783;DHT22;18351;47.560;9.708;2023-07-24T02:17:32;20.90;99.90
31783;DHT22;18351;47.560;9.708;2023-07-24T02:19:58;20.90;99.90
31783;DHT22;18351;47.560;9.708;2023-07-24T02:22:24;20.90;99.90
31783;DHT22;18351;47.560;9.708;2023-07-24T02:24:49;20.80;99.90
31783;DHT22;18351;47.560;9.708;2023-07-24T02:27:25;20.80;99.90
31783;DHT22;18351;47.560;9.708;2023-07-24T02:29:52;20.70;99.90
31783;DHT22;18351;47.560;9.708;2023-07-24T02:32:17;20.70;99.90
31783;DHT22;18351;47.560;9.708;2023-07-24T02:34:43;20.60;99.90
31783;DHT22;18351;47.560;9.708;2023-07-24T02:37:08;20.60;99.90
31783;DHT22;18351;47.560;9.708;2023-07-24T02:39:34;20.60;99.90
31783;DHT22;18351;47.560;9.708;2023-07-24T02:41:59;20.50;99.90
31783;DHT22;18351;47.560;9.708;2023-07-24T02:44:25;20.50;99.90
31783;DHT22;18351;47.560;9.708;2023-07-24T02:46:51;20.40;99.90
31783;DHT22;18351;47.560;9.708;2023-07-24T02:49:16;20.30;99.90
31783;DHT22;18351;47.560;9.708;2023-07-24T02:51:42;20.20;99.90
31783;DHT22;18351;47.560;9.708;2023-07-24T02:54:07;20.00;99.90
31783;DHT22;18351;47.560;9.708;2023-07-24T02:56:33;19.80;99.90
31783;DHT22;18351;47.560;9.708;2023-07-24T02:58:58;19.60;99.90
31783;DHT22;18351;47.560;9.708;2023-07-24T03:01:24;19.60;99.90
31783;DHT22;18351;47.560;9.708;2023-07-24T03:03:49;19.60;99.90
31783;DHT22;18351;47.560;9.708;2023-07-24T03:06:15;19.50;99.90
31783;DHT22;18351;47.560;9.708;2023-07-24T03:08:41;19.50;99.90
31783;DHT22;18351;47.560;9.708;2023-07-24T03:11:07;19.50;99.90
31783;DHT22;18351;47.560;9.708;2023-07-24T03:13:33;19.50;99.90
31783;DHT22;18351;47.560;9.708;2023-07-24T03:15:58;19.60;99.90
31783;DHT22;18351;47.560;9.708;2023-07-24T03:18:25;19.50;99.90
31783;DHT22;18351;47.560;9.708;2023-07-24T03:20:50;19.50;99.90
31783;DHT22;18351;47.560;9.708;2023-07-24T03:23:16;19.50;99.90
31783;DHT22;18351;47.560;9.708;2023-07-24T03:25:42;19.50;99.90
31783;DHT22;18351;47.560;9.708;2023-07-24T03:28:07;19.50;99.90
31783;DHT22;18351;47.560;9.708;2023-07-24T03:30:33;19.50;99.90
31783;DHT22;18351;47.560;9.708;2023-07-24T03:32:59;19.40;99.90
31783;DHT22;18351;47.560;9.708;2023-07-24T03:35:25;19.40;99.90
31783;DHT22;18351;47.560;9.708;2023-07-24T03:37:50;19.30;99.90
31783;DHT22;18351;47.560;9.708;2023-07-24T03:40:16;19.30;99.90
31783;DHT22;18351;47.560;9.708;2023-07-24T03:42:42;19.30;99.90
31783;DHT22;18351;47.560;9.708;2023-07-24T03:45:07;19.20;99.90
31783;DHT22;18351;47.560;9.708;2023-07-24T03:47:33;19.20;99.90
31783;DHT22;18351;47.560;9.708;2023-07-24T03:49:59;19.00;99.90
31783;DHT22;18351;47.560;9.708;2023-07-24T03:52:25;18.90;99.90
31783;DHT22;18351;47.560;9.708;2023-07-24T03:54:51;18.80;99.90
31783;DHT22;18351;47.560;9.708;2023-07-24T03:57:17;18.80;99.90
31783;DHT22;18351;47.560;9.708;2023-07-24T03:59:43;18.90;99.90
31783;DHT22;18351;47.560;9.708;2023-07-24T04:02:09;18.90;99.90
31783;DHT22;18351;47.560;9.708;2023-07-24T04:04:34;18.90;99.90
31783;DHT22;18351;47.560;9.708;2023-07-24T04:07:00;18.90;99.90
31783;DHT22;18351;47.560;9.708;2023-07-24T04:09:26;18.90;99.90
31783;DHT22;18351;47.560;9.708;2023-07-24T04:11:52;18.90;99.90
31783;DHT22;18351;47.560;9.708;2023-07-24T04:14:17;19.00;99.90
31783;DHT22;18351;47.560;9.708;2023-07-24T04:16:43;18.90;99.90
31783;DHT22;18351;47.560;9.708;2023-07-24T04:19:09;18.90;99.90
31783;DHT22;18351;47.560;9.708;2023-07-24T04:21:34;19.00;99.90
31783;DHT22;18351;47.560;9.708;2023-07-24T04:24:00;18.90;99.90
31783;DHT22;18351;47.560;9.708;2023-07-24T04:26:25;19.00;99.90
31783;DHT22;18351;47.560;9.708;2023-07-24T04:28:51;19.10;99.90
31783;DHT22;18351;47.560;9.708;2023-07-24T04:31:16;19.10;99.90
31783;DHT22;18351;47.560;9.708;2023-07-24T04:33:42;19.20;99.90
31783;DHT22;18351;47.560;9.708;2023-07-24T04:36:07;19.30;99.90
31783;DHT22;18351;47.560;9.708;2023-07-24T04:38:33;19.50;99.90
31783;DHT22;18351;47.560;9.708;2023-07-24T04:41:01;19.60;99.90
31783;DHT22;18351;47.560;9.708;2023-07-24T04:43:28;19.70;99.90
31783;DHT22;18351;47.560;9.708;2023-07-24T04:45:54;19.90;99.90
31783;DHT22;18351;47.560;9.708;2023-07-24T04:48:19;20.20;99.90
31783;DHT22;18351;47.560;9.708;2023-07-24T04:50:45;20.20;99.90
31783;DHT22;18351;47.560;9.708;2023-07-24T04:53:11;20.40;99.90
31783;DHT22;18351;47.560;9.708;2023-07-24T04:55:36;20.50;99.90
31783;DHT22;18351;47.560;9.708;2023-07-24T04:58:02;20.50;99.90
31783;DHT22;18351;47.560;9.708;2023-07-24T05:00:27;20.50;99.90
31783;DHT22;18351;47.560;9.708;2023-07-24T05:02:53;20.50;99.90
31783;DHT22;18351;47.560;9.708;2023-07-24T05:05:18;20.40;99.90
31783;DHT22;18351;47.560;9.708;2023-07-24T05:07:44;20.40;99.90
31783;DHT22;18351;47.560;9.708;2023-07-24T05:10:09;20.30;99.90
31783;DHT22;18351;47.560;9.708;2023-07-24T05:12:35;20.20;99.90
31783;DHT22;18351;47.560;9.708;2023-07-24T05:15:01;20.30;99.90
31783;DHT22;18351;47.560;9.708;2023-07-24T05:17:26;20.50;99.90
31783;DHT22;18351;47.560;9.708;2023-07-24T05:19:52;20.60;99.90
31783;DHT22;18351;47.560;9.708;2023-07-24T05:22:17;20.80;99.90
31783;DHT22;18351;47.560;9.708;2023-07-24T05:24:43;21.00;99.90
31783;DHT22;18351;47.560;9.708;2023-07-24T05:27:08;21.30;99.90
31783;DHT22;18351;47.560;9.708;2023-07-24T05:29:34;21.40;99.90
31783;DHT22;18351;47.560;9.708;2023-07-24T05:31:59;21.60;99.90
31783;DHT22;18351;47.560;9.708;2023-07-24T05:34:26;21.60;99.90
31783;DHT22;18351;47.560;9.708;2023-07-24T05:36:51;21.60;99.90
31783;DHT22;18351;47.560;9.708;2023-07-24T05:39:17;21.50;99.90
31783;DHT22;18351;47.560;9.708;2023-07-24T05:41:42;21.40;99.90
31783;DHT22;18351;47.560;9.708;2023-07-24T05:44:08;21.20;99.90
31783;DHT22;18351;47.560;9.708;2023-07-24T05:46:33;21.10;99.90
31783;DHT22;18351;47.560;9.708;2023-07-24T05:48:59;20.90;99.90
31783;DHT22;18351;47.560;9.708;2023-07-24T05:51:28;20.70;99.90
31783;DHT22;18351;47.560;9.708;2023-07-24T05:53:54;20.20;99.90
31783;DHT22;18351;47.560;9.708;2023-07-24T05:56:19;19.70;99.90
31783;DHT22;18351;47.560;9.708;2023-07-24T05:58:45;19.50;99.90
31783;DHT22;18351;47.560;9.708;2023-07-24T06:01:10;19.30;99.90
31783;DHT22;18351;47.560;9.708;2023-07-24T06:03:36;19.10;99.90
31783;DHT22;18351;47.560;9.708;2023-07-24T06:06:04;19.10;99.90
31783;DHT22;18351;47.560;9.708;2023-07-24T06:08:29;19.10;99.90
31783;DHT22;18351;47.560;9.708;2023-07-24T06:10:55;19.10;99.90
31783;DHT22;18351;47.560;9.708;2023-07-24T06:13:20;19.10;99.90
31783;DHT22;18351;47.560;9.708;2023-07-24T06:15:50;19.20;99.90
31783;DHT22;18351;47.560;9.708;2023-07-24T06:18:15;19.20;99.90
31783;DHT22;18351;47.560;9.708;2023-07-24T06:20:41;19.40;99.90
31783;DHT22;18351;47.560;9.708;2023-07-24T06:23:07;19.30;99.90
31783;DHT22;18351;47.560;9.708;2023-07-24T06:25:33;19.30;99.90
31783;DHT22;18351;47.560;9.708;2023-07-24T06:27:58;19.30;99.90
31783;DHT22;18351;47.560;9.708;2023-07-24T06:30:24;19.40;99.90
31783;DHT22;18351;47.560;9.708;2023-07-24T06:32:50;19.40;99.90
31783;DHT22;18351;47.560;9.708;2023-07-24T06:35:15;19.50;99.90
31783;DHT22;18351;47.560;9.708;2023-07-24T06:37:41;19.60;99.90
31783;DHT22;18351;47.560;9.708;2023-07-24T06:40:07;19.70;99.90
31783;DHT22;18351;47.560;9.708;2023-07-24T06:42:34;19.80;99.90
31783;DHT22;18351;47.560;9.708;2023-07-24T06:44:59;19.80;99.90
31783;DHT22;18351;47.560;9.708;2023-07-24T06:47:25;19.70;99.90
31783;DHT22;18351;47.560;9.708;2023-07-24T06:49:50;19.60;99.90
31783;DHT22;18351;47.560;9.708;2023-07-24T06:52:16;19.40;99.90
31783;DHT22;18351;47.560;9.708;2023-07-24T06:54:41;19.40;99.90
31783;DHT22;18351;47.560;9.708;2023-07-24T06:57:07;19.30;99.90
31783;DHT22;18351;47.560;9.708;2023-07-24T06:59:33;19.30;99.90
31783;DHT22;18351;47.560;9.708;2023-07-24T07:01:58;19.40;99.90
31783;DHT22;18351;47.560;9.708;2023-07-24T07:04:24;19.50;99.90
31783;DHT22;18351;47.560;9.708;2023-07-24T07:06:50;19.60;99.90
31783;DHT22;18351;47.560;9.708;2023-07-24T07:09:15;19.60;99.90
31783;DHT22;18351;47.560;9.708;2023-07-24T07:11:41;19.60;99.90
31783;DHT22;18351;47.560;9.708;2023-07-24T07:14:08;19.60;99.90
31783;DHT22;18351;47.560;9.708;2023-07-24T07:16:34;19.60;99.90
31783;DHT22;18351;47.560;9.708;2023-07-24T07:19:00;19.50;99.90
31783;DHT22;18351;47.560;9.708;2023-07-24T07:21:26;19.70;99.90
31783;DHT22;18351;47.560;9.708;2023-07-24T07:23:52;19.70;99.90
31783;DHT22;18351;47.560;9.708;2023-07-24T07:26:17;19.80;99.90
31783;DHT22;18351;47.560;9.708;2023-07-24T07:28:43;20.00;99.90
31783;DHT22;18351;47.560;9.708;2023-07-24T07:31:11;20.10;99.90
31783;DHT22;18351;47.560;9.708;2023-07-24T07:33:37;20.20;99.90
31783;DHT22;18351;47.560;9.708;2023-07-24T07:36:02;20.30;99.90
31783;DHT22;18351;47.560;9.708;2023-07-24T07:38:30;20.40;99.90
31783;DHT22;18351;47.560;9.708;2023-07-24T07:40:55;20.50;99.90
31783;DHT22;18351;47.560;9.708;2023-07-24T07:43:21;20.40;99.90
31783;DHT22;18351;47.560;9.708;2023-07-24T07:45:47;20.40;99.90
31783;DHT22;18351;47.560;9.708;2023-07-24T07:48:12;20.50;99.90
31783;DHT22;18351;47.560;9.708;2023-07-24T07:50:38;20.60;99.90
31783;DHT22;18351;47.560;9.708;2023-07-24T07:53:03;20.70;99.90
31783;DHT22;18351;47.560;9.708;2023-07-24T07:55:29;20.70;99.90
31783;DHT22;18351;47.560;9.708;2023-07-24T07:57:55;20.80;99.90
31783;DHT22;18351;47.560;9.708;2023-07-24T08:00:20;20.80;99.90
31783;DHT22;18351;47.560;9.708;2023-07-24T08:02:46;20.90;99.90
31783;DHT22;18351;47.560;9.708;2023-07-24T08:05:11;21.00;99.90
31783;DHT22;18351;47.560;9.708;2023-07-24T08:07:37;21.10;99.90
31783;DHT22;18351;47.560;9.708;2023-07-24T08:10:03;21.40;99.90
31783;DHT22;18351;47.560;9.708;2023-07-24T08:12:29;21.60;99.90
31783;DHT22;18351;47.560;9.708;2023-07-24T08:14:56;21.90;99.90
31783;DHT22;18351;47.560;9.708;2023-07-24T08:17:21;22.20;99.90
31783;DHT22;18351;47.560;9.708;2023-07-24T08:19:47;22.40;99.90
31783;DHT22;18351;47.560;9.708;2023-07-24T08:22:13;22.20;99.90
31783;DHT22;18351;47.560;9.708;2023-07-24T08:24:38;22.30;99.90
31783;DHT22;18351;47.560;9.708;2023-07-24T08:27:04;22.50;99.90
31783;DHT22;18351;47.560;9.708;2023-07-24T08:29:30;22.40;99.90
31783;DHT22;18351;47.560;9.708;2023-07-24T08:31:56;22.40;99.90
31783;DHT22;18351;47.560;9.708;2023-07-24T08:34:21;22.40;99.90
31783;DHT22;18351;47.560;9.708;2023-07-24T08:36:47;22.50;99.90
31783;DHT22;18351;47.560;9.708;2023-07-24T08:39:12;22.40;99.90
31783;DHT22;18351;47.560;9.708;2023-07-24T08:41:38;22.50;99.90
31783;DHT22;18351;47.560;9.708;2023-07-24T08:44:08;22.60;99.90
31783;DHT22;18351;47.560;9.708;2023-07-24T08:46:37;22.60;99.90
31783;DHT22;18351;47.560;9.708;2023-07-24T08:49:06;22.30;99.90
31783;DHT22;18351;47.560;9.708;2023-07-24T08:51:37;22.10;99.90
31783;DHT22;18351;47.560;9.708;2023-07-24T08:54:03;22.00;99.90
31783;DHT22;18351;47.560;9.708;2023-07-24T08:56:29;22.40;99.90
31783;DHT22;18351;47.560;9.708;2023-07-24T08:58:56;22.70;99.90
31783;DHT22;18351;47.560;9.708;2023-07-24T09:01:21;22.90;99.90
31783;DHT22;18351;47.560;9.708;2023-07-24T09:03:47;23.00;99.90
31783;DHT22;18351;47.560;9.708;2023-07-24T09:06:12;23.10;99.90
31783;DHT22;18351;47.560;9.708;2023-07-24T09:08:40;23.20;99.90
31783;DHT22;18351;47.560;9.708;2023-07-24T09:11:07;23.60;99.90
31783;DHT22;18351;47.560;9.708;2023-07-24T09:13:35;23.50;99.90
31783;DHT22;18351;47.560;9.708;2023-07-24T09:16:01;23.60;99.90
31783;DHT22;18351;47.560;9.708;2023-07-24T09:18:38;23.70;99.90
31783;DHT22;18351;47.560;9.708;2023-07-24T09:21:04;24.00;99.90
31783;DHT22;18351;47.560;9.708;2023-07-24T09:23:29;24.30;99.90
31783;DHT22;18351;47.560;9.708;2023-07-24T09:25:55;24.70;99.90
31783;DHT22;18351;47.560;9.708;2023-07-24T09:28:21;24.70;99.90
31783;DHT22;18351;47.560;9.708;2023-07-24T09:30:55;24.80;99.90
31783;DHT22;18351;47.560;9.708;2023-07-24T09:33:37;24.90;99.90
31783;DHT22;18351;47.560;9.708;2023-07-24T09:36:04;25.20;99.90
31783;DHT22;18351;47.560;9.708;2023-07-24T09:38:30;25.60;99.90
31783;DHT22;18351;47.560;9.708;2023-07-24T09:40:56;25.90;99.90
31783;DHT22;18351;47.560;9.708;2023-07-24T09:43:25;26.30;99.90
31783;DHT22;18351;47.560;9.708;2023-07-24T09:45:52;26.50;99.90
31783;DHT22;18351;47.560;9.708;2023-07-24T09:48:19;26.80;99.90
31783;DHT22;18351;47.560;9.708;2023-07-24T09:50:47;26.80;95.70
31783;DHT22;18351;47.560;9.708;2023-07-24T09:53:47;27.00;96.00
31783;DHT22;18351;47.560;9.708;2023-07-24T09:56:14;27.20;96.50
31783;DHT22;18351;47.560;9.708;2023-07-24T09:58:41;27.00;95.50
31783;DHT22;18351;47.560;9.708;2023-07-24T10:01:10;27.00;95.10
31783;DHT22;18351;47.560;9.708;2023-07-24T10:03:39;27.00;92.40
31783;DHT22;18351;47.560;9.708;2023-07-24T10:06:05;27.00;94.30
31783;DHT22;18351;47.560;9.708;2023-07-24T10:08:31;27.00;93.80
31783;DHT22;18351;47.560;9.708;2023-07-24T10:10:58;27.20;94.20
31783;DHT22;18351;47.560;9.708;2023-07-24T10:13:26;27.30;92.90
31783;DHT22;18351;47.560;9.708;2023-07-24T10:15:52;27.40;92.10
31783;DHT22;18351;47.560;9.708;2023-07-24T10:18:28;27.50;91.20
31783;DHT22;18351;47.560;9.708;2023-07-24T10:21:02;27.60;91.40
31783;DHT22;18351;47.560;9.708;2023-07-24T10:23:28;27.50;86.50
31783;DHT22;18351;47.560;9.708;2023-07-24T10:25:54;27.40;88.80
31783;DHT22;18351;47.560;9.708;2023-07-24T10:28:30;27.30;90.10
31783;DHT22;18351;47.560;9.708;2023-07-24T10:30:56;27.20;86.40
31783;DHT22;18351;47.560;9.708;2023-07-24T10:33:22;27.10;91.30
31783;DHT22;18351;47.560;9.708;2023-07-24T10:35:52;27.00;93.70
31783;DHT22;18351;47.560;9.708;2023-07-24T10:38:18;27.00;94.60
31783;DHT22;18351;47.560;9.708;2023-07-24T10:40:47;26.70;96.30
31783;DHT22;18351;47.560;9.708;2023-07-24T10:43:19;26.50;97.30
31783;DHT22;18351;47.560;9.708;2023-07-24T10:45:47;26.20;97.20
31783;DHT22;18351;47.560;9.708;2023-07-24T10:48:16;25.70;98.20
31783;DHT22;18351;47.560;9.708;2023-07-24T10:50:44;25.60;99.90
31783;DHT22;18351;47.560;9.708;2023-07-24T10:53:11;25.30;99.90
31783;DHT22;18351;47.560;9.708;2023-07-24T10:55:37;25.20;99.90
31783;DHT22;18351;47.560;9.708;2023-07-24T10:58:02;25.20;99.90
31783;DHT22;18351;47.560;9.708;2023-07-24T11:00:28;25.00;99.90
31783;DHT22;18351;47.560;9.708;2023-07-24T11:02:54;24.90;99.90
31783;DHT22;18351;47.560;9.708;2023-07-24T11:05:23;24.70;99.90
31783;DHT22;18351;47.560;9.708;2023-07-24T11:07:50;24.60;99.90
31783;DHT22;18351;47.560;9.708;2023-07-24T11:10:20;24.50;99.90
31783;DHT22;18351;47.560;9.708;2023-07-24T11:12:46;24.40;99.90
31783;DHT22;18351;47.560;9.708;2023-07-24T11:15:13;24.40;99.90
31783;DHT22;18351;47.560;9.708;2023-07-24T11:17:40;24.30;99.90
31783;DHT22;18351;47.560;9.708;2023-07-24T11:20:15;24.30;99.90
31783;DHT22;18351;47.560;9.708;2023-07-24T11:22:42;24.10;99.90
31783;DHT22;18351;47.560;9.708;2023-07-24T11:25:10;24.00;99.90
31783;DHT22;18351;47.560;9.708;2023-07-24T11:27:40;23.80;99.90
31783;DHT22;18351;47.560;9.708;2023-07-24T11:30:08;23.60;99.90
31783;DHT22;18351;47.560;9.708;2023-07-24T11:32:34;23.50;99.90
31783;DHT22;18351;47.560;9.708;2023-07-24T11:35:00;23.30;99.90
31783;DHT22;18351;47.560;9.708;2023-07-24T11:37:26;23.30;99.90
31783;DHT22;18351;47.560;9.708;2023-07-24T11:39:59;23.20;99.90
31783;DHT22;18351;47.560;9.708;2023-07-24T11:42:26;23.00;99.90
31783;DHT22;18351;47.560;9.708;2023-07-24T11:44:52;23.00;99.90
31783;DHT22;18351;47.560;9.708;2023-07-24T11:47:17;22.90;99.90
31783;DHT22;18351;47.560;9.708;2023-07-24T11:49:43;23.00;99.90
31783;DHT22;18351;47.560;9.708;2023-07-24T11:52:13;23.10;99.90
31783;DHT22;18351;47.560;9.708;2023-07-24T11:54:39;23.00;99.90
31783;DHT22;18351;47.560;9.708;2023-07-24T11:57:25;22.90;99.90
31783;DHT22;18351;47.560;9.708;2023-07-24T11:59:50;22.80;99.90
31783;DHT22;18351;47.560;9.708;2023-07-24T12:02:16;22.60;99.90
31783;DHT22;18351;47.560;9.708;2023-07-24T12:04:41;22.60;99.90
31783;DHT22;18351;47.560;9.708;2023-07-24T12:07:08;22.40;99.90
31783;DHT22;18351;47.560;9.708;2023-07-24T12:09:34;22.20;99.90
31783;DHT22;18351;47.560;9.708;2023-07-24T12:11:59;22.00;99.90
31783;DHT22;18351;47.560;9.708;2023-07-24T12:14:25;21.50;99.90
31783;DHT22;18351;47.560;9.708;2023-07-24T12:17:01;21.30;99.90
31783;DHT22;18351;47.560;9.708;2023-07-24T12:19:26;21.40;99.90
31783;DHT22;18351;47.560;9.708;2023-07-24T12:21:52;21.30;99.90
31783;DHT22;18351;47.560;9.708;2023-07-24T12:24:17;21.20;99.90
31783;DHT22;18351;47.560;9.708;2023-07-24T12:26:43;21.30;99.90
31783;DHT22;18351;47.560;9.708;2023-07-24T12:29:09;21.60;99.90
31783;DHT22;18351;47.560;9.708;2023-07-24T12:31:34;21.80;99.90
31783;DHT22;18351;47.560;9.708;2023-07-24T12:34:00;22.00;99.90
31783;DHT22;18351;47.560;9.708;2023-07-24T12:36:25;22.50;99.90
31783;DHT22;18351;47.560;9.708;2023-07-24T12:38:51;22.50;99.90
31783;DHT22;18351;47.560;9.708;2023-07-24T12:41:16;22.40;99.90
31783;DHT22;18351;47.560;9.708;2023-07-24T12:43:43;22.10;99.90
31783;DHT22;18351;47.560;9.708;2023-07-24T12:46:09;21.80;99.90
31783;DHT22;18351;47.560;9.708;2023-07-24T12:48:34;21.70;99.90
31783;DHT22;18351;47.560;9.708;2023-07-24T12:51:01;21.60;99.90
31783;DHT22;18351;47.560;9.708;2023-07-24T12:53:27;22.00;99.90
31783;DHT22;18351;47.560;9.708;2023-07-24T12:55:53;22.40;99.90
31783;DHT22;18351;47.560;9.708;2023-07-24T12:58:18;22.50;99.90
31783;DHT22;18351;47.560;9.708;2023-07-24T13:00:44;22.70;99.90
31783;DHT22;18351;47.560;9.708;2023-07-24T13:03:09;22.80;99.90
31783;DHT22;18351;47.560;9.708;2023-07-24T13:05:35;23.20;99.90
31783;DHT22;18351;47.560;9.708;2023-07-24T13:08:00;23.50;99.90
31783;DHT22;18351;47.560;9.708;2023-07-24T13:10:26;23.70;99.90
31783;DHT22;18351;47.560;9.708;2023-07-24T13:12:51;23.60;99.90
31783;DHT22;18351;47.560;9.708;2023-07-24T13:15:17;23.70;99.90
31783;DHT22;18351;47.560;9.708;2023-07-24T13:17:43;23.70;99.90
31783;DHT22;18351;47.560;9.708;2023-07-24T13:20:08;23.60;99.90
31783;DHT22;18351;47.560;9.708;2023-07-24T13:22:34;23.60;99.90
31783;DHT22;18351;47.560;9.708;2023-07-24T13:25:00;23.70;99.90
31783;DHT22;18351;47.560;9.708;2023-07-24T13:27:25;23.70;99.90
31783;DHT22;18351;47.560;9.708;2023-07-24T13:29:51;23.70;99.90
31783;DHT22;18351;47.560;9.708;2023-07-24T13:32:16;23.70;99.90
31783;DHT22;18351;47.560;9.708;2023-07-24T13:34:42;23.70;99.90
31783;DHT22;18351;47.560;9.708;2023-07-24T13:37:08;23.60;99.90
31783;DHT22;18351;47.560;9.708;2023-07-24T13:39:33;23.80;99.90
31783;DHT22;18351;47.560;9.708;2023-07-24T13:41:59;24.20;99.80
31783;DHT22;18351;47.560;9.708;2023-07-24T13:44:25;24.40;98.60
31783;DHT22;18351;47.560;9.708;2023-07-24T13:46:51;24.50;98.70
31783;DHT22;18351;47.560;9.708;2023-07-24T13:49:16;24.50;98.90
31783;DHT22;18351;47.560;9.708;2023-07-24T13:51:42;24.60;98.80
31783;DHT22;18351;47.560;9.708;2023-07-24T13:54:07;24.60;99.20
31783;DHT22;18351;47.560;9.708;2023-07-24T13:56:33;24.80;99.40
31783;DHT22;18351;47.560;9.708;2023-07-24T13:59:01;25.00;99.90
31783;DHT22;18351;47.560;9.708;2023-07-24T14:01:26;25.00;99.90
31783;DHT22;18351;47.560;9.708;2023-07-24T14:03:52;24.80;98.70
31783;DHT22;18351;47.560;9.708;2023-07-24T14:06:18;24.80;99.90
31783;DHT22;18351;47.560;9.708;2023-07-24T14:08:43;24.90;99.70
31783;DHT22;18351;47.560;9.708;2023-07-24T14:11:09;25.10;99.90
31783;DHT22;18351;47.560;9.708;2023-07-24T14:13:34;25.30;99.90
31783;DHT22;18351;47.560;9.708;2023-07-24T14:16:00;25.60;99.90
31783;DHT22;18351;47.560;9.708;2023-07-24T14:18:25;25.80;99.00
31783;DHT22;18351;47.560;9.708;2023-07-24T14:20:51;25.80;99.30
31783;DHT22;18351;47.560;9.708;2023-07-24T14:23:19;25.80;98.70
31783;DHT22;18351;47.560;9.708;2023-07-24T14:25:45;25.70;97.10
31783;DHT22;18351;47.560;9.708;2023-07-24T14:28:10;25.60;99.90
31783;DHT22;18351;47.560;9.708;2023-07-24T14:30:36;25.60;99.10
31783;DHT22;18351;47.560;9.708;2023-07-24T14:33:02;25.60;99.90
31783;DHT22;18351;47.560;9.708;2023-07-24T14:35:27;25.50;98.90
31783;DHT22;18351;47.560;9.708;2023-07-24T14:37:53;25.30;98.10
31783;DHT22;18351;47.560;9.708;2023-07-24T14:40:18;25.20;98.60
31783;DHT22;18351;47.560;9.708;2023-07-24T14:42:44;25.00;99.00
31783;DHT22;18351;47.560;9.708;2023-07-24T14:45:10;25.00;99.90
31783;DHT22;18351;47.560;9.708;2023-07-24T14:47:36;25.00;98.90
31783;DHT22;18351;47.560;9.708;2023-07-24T14:50:01;24.70;99.50
31783;DHT22;18351;47.560;9.708;2023-07-24T14:52:27;24.60;99.90
31783;DHT22;18351;47.560;9.708;2023-07-24T14:54:53;24.40;99.90
31783;DHT22;18351;47.560;9.708;2023-07-24T14:57:18;24.40;99.90
31783;DHT22;18351;47.560;9.708;2023-07-24T14:59:44;24.30;99.90
31783;DHT22;18351;47.560;9.708;2023-07-24T15:02:10;24.30;99.90
31783;DHT22;18351;47.560;9.708;2023-07-24T15:04:35;24.30;99.30
31783;DHT22;18351;47.560;9.708;2023-07-24T15:07:01;24.20;99.90
31783;DHT22;18351;47.560;9.708;2023-07-24T15:09:26;24.10;99.90
31783;DHT22;18351;47.560;9.708;2023-07-24T15:11:52;24.00;99.90
31783;DHT22;18351;47.560;9.708;2023-07-24T15:14:17;23.90;99.90
31783;DHT22;18351;47.560;9.708;2023-07-24T15:16:43;23.80;99.90
31783;DHT22;18351;47.560;9.708;2023-07-24T15:19:08;23.70;99.90
31783;DHT22;18351;47.560;9.708;2023-07-24T15:21:34;23.60;99.90
31783;DHT22;18351;47.560;9.708;2023-07-24T15:24:00;23.50;99.90